Burtonville, Kentucky
Current Conditions -  °F | °C
As of 1:55 PM on Saturday 25 Oct 2014 (Local Time) from KFGX Reporting Station
Overcast Overcast  
Wind Chill: 18°   Ceiling: 1900
Heat Index: 18°   Visibility: 10mi
Dew Point: 12°   Wind: 12mph
Humidity: 70%   Direction: 230°SW
Pressure: 29.98"   Gusts: NA
Location:  38.5845°N, 83.5468°W
Report Text: KFGX 251755Z AUTO 23010KT 10SM OVC019 18/12 A2998 RMK AO2 6//// T01770122
Loading
Personal Weather Stations






























Interactive Weather Map
Tropical Storm Tracking
New forecast layout! Learn more

10-Day Weather Forecast

Advertisements
Track Severe Weather on mobile